createdAt,value
2023-11-15T00:01:08.014Z,1.37
2023-11-15T00:03:35.088Z,2.03
2023-11-15T00:06:02.493Z,1.43
2023-11-15T00:08:29.694Z,1.80
2023-11-15T00:10:56.781Z,1.40
2023-11-15T00:13:23.698Z,1.40
2023-11-15T00:15:51.057Z,1.10
2023-11-15T00:18:17.921Z,0.90
2023-11-15T00:20:45.155Z,1.10
2023-11-15T00:23:12.027Z,1.20
2023-11-15T00:25:38.936Z,1.20
2023-11-15T00:28:05.777Z,1.40
2023-11-15T00:30:33.509Z,1.50
2023-11-15T00:33:01.003Z,1.43
2023-11-15T00:35:28.190Z,1.00
2023-11-15T00:37:55.761Z,1.17
2023-11-15T00:40:22.621Z,1.70
2023-11-15T00:42:52.344Z,1.20
2023-11-15T00:45:19.297Z,1.20
2023-11-15T00:47:46.157Z,1.60
2023-11-15T00:50:13.102Z,1.50
2023-11-15T00:52:40.035Z,1.40
2023-11-15T00:55:09.160Z,1.33
2023-11-15T00:57:35.944Z,1.40
2023-11-15T01:00:02.936Z,1.30
2023-11-15T01:02:33.961Z,1.30
2023-11-15T01:05:01.581Z,1.40
2023-11-15T01:07:28.388Z,1.70
2023-11-15T01:09:56.359Z,1.37
2023-11-15T01:12:23.826Z,1.33
2023-11-15T01:14:50.844Z,1.47
2023-11-15T01:17:17.888Z,1.20
2023-11-15T01:19:44.718Z,1.50
2023-11-15T01:22:11.495Z,1.70
2023-11-15T01:24:40.758Z,1.47
2023-11-15T01:27:07.558Z,1.53
2023-11-15T01:29:34.442Z,1.40
2023-11-15T01:32:01.408Z,1.77
2023-11-15T01:34:28.238Z,1.20
2023-11-15T01:36:56.090Z,1.87
2023-11-15T01:39:24.882Z,1.73
2023-11-15T01:41:51.954Z,1.60
2023-11-15T01:44:20.422Z,1.30
2023-11-15T01:46:50.079Z,1.20
2023-11-15T01:49:22.773Z,1.67
2023-11-15T01:51:51.687Z,1.40
2023-11-15T01:54:19.931Z,1.67
2023-11-15T01:56:47.262Z,1.70
2023-11-15T01:59:15.641Z,1.50
2023-11-15T02:01:43.231Z,1.63
2023-11-15T02:04:10.434Z,1.47
2023-11-15T02:06:38.471Z,1.60
2023-11-15T02:09:09.792Z,1.63
2023-11-15T02:11:36.965Z,1.93
2023-11-15T02:14:04.421Z,1.40
2023-11-15T02:16:31.370Z,1.10
2023-11-15T02:18:58.229Z,1.30
2023-11-15T02:21:25.143Z,1.50
2023-11-15T02:23:52.689Z,1.30
2023-11-15T02:26:20.709Z,1.37
2023-11-15T02:28:48.227Z,1.23
2023-11-15T02:31:15.073Z,1.70
2023-11-15T02:33:42.025Z,1.30
2023-11-15T02:36:09.913Z,1.50
2023-11-15T02:38:37.061Z,1.50
2023-11-15T02:41:04.060Z,1.60
2023-11-15T02:43:30.905Z,1.40
2023-11-15T02:45:58.082Z,1.47
2023-11-15T02:48:25.064Z,1.43
2023-11-15T02:50:51.973Z,1.90
2023-11-15T02:53:20.152Z,2.23
2023-11-15T02:55:47.499Z,3.00
2023-11-15T02:58:15.329Z,1.63
2023-11-15T03:00:42.794Z,1.40
2023-11-15T03:03:09.878Z,1.80
2023-11-15T03:05:38.096Z,1.57
2023-11-15T03:08:06.823Z,1.50
2023-11-15T03:10:35.058Z,2.30
2023-11-15T03:13:02.328Z,1.60
2023-11-15T03:15:29.756Z,2.27
2023-11-15T03:17:57.259Z,1.50
2023-11-15T03:20:25.134Z,1.67
2023-11-15T03:22:52.256Z,1.83
2023-11-15T03:25:19.062Z,1.70
2023-11-15T03:27:45.903Z,1.60
2023-11-15T03:30:13.803Z,1.73
2023-11-15T03:32:40.754Z,2.13
2023-11-15T03:35:08.191Z,1.60
2023-11-15T03:37:35.008Z,1.50
2023-11-15T03:40:01.973Z,1.80
2023-11-15T03:42:28.797Z,1.70
2023-11-15T03:44:55.778Z,1.47
2023-11-15T03:47:22.665Z,1.67
2023-11-15T03:49:50.803Z,1.30
2023-11-15T03:52:17.628Z,1.90
2023-11-15T03:54:44.376Z,1.40
2023-11-15T03:57:12.798Z,1.40
2023-11-15T03:59:39.608Z,1.40
2023-11-15T04:02:07.590Z,1.27
2023-11-15T04:04:35.032Z,1.50
2023-11-15T04:07:04.211Z,1.37
2023-11-15T04:09:34.003Z,1.70
2023-11-15T04:12:01.260Z,1.70
2023-11-15T04:14:28.908Z,1.70
2023-11-15T04:16:55.718Z,1.40
2023-11-15T04:19:23.478Z,1.97
2023-11-15T04:22:00.989Z,1.20
2023-11-15T04:24:38.985Z,1.80
2023-11-15T04:27:06.830Z,1.47
2023-11-15T04:29:33.661Z,1.43
2023-11-15T04:32:00.506Z,1.50
2023-11-15T04:34:27.313Z,2.10
2023-11-15T04:36:54.226Z,1.60
2023-11-15T04:39:21.085Z,2.03
2023-11-15T04:41:48.982Z,1.63
2023-11-15T04:44:15.757Z,2.00
2023-11-15T04:46:42.662Z,2.10
2023-11-15T04:49:09.705Z,1.53
2023-11-15T04:51:36.461Z,2.07
2023-11-15T04:54:04.560Z,1.40
2023-11-15T04:56:31.421Z,1.73
2023-11-15T04:58:58.184Z,1.30
2023-11-15T05:01:25.599Z,1.60
2023-11-15T05:03:52.644Z,2.07
2023-11-15T05:06:19.815Z,1.70
2023-11-15T05:08:46.674Z,2.20
2023-11-15T05:11:13.455Z,1.80
2023-11-15T05:13:40.246Z,1.70
2023-11-15T05:16:07.725Z,2.00
2023-11-15T05:18:34.732Z,1.37
2023-11-15T05:21:01.603Z,1.30
2023-11-15T05:23:28.463Z,1.30
2023-11-15T05:25:55.466Z,1.73
2023-11-15T05:28:22.281Z,1.50
2023-11-15T05:30:49.184Z,1.37
2023-11-15T05:33:16.654Z,1.67
2023-11-15T05:35:43.498Z,2.00
2023-11-15T05:38:10.240Z,1.53
2023-11-15T05:40:36.989Z,1.50
2023-11-15T05:43:03.797Z,2.60
2023-11-15T05:45:30.505Z,3.57
2023-11-15T05:47:57.429Z,2.37
2023-11-15T05:50:24.372Z,2.33
2023-11-15T05:52:53.650Z,2.33
2023-11-15T05:55:20.490Z,2.67
2023-11-15T05:57:47.925Z,1.80
2023-11-15T06:00:21.859Z,1.93
2023-11-15T06:02:49.751Z,2.50
2023-11-15T06:05:18.167Z,2.57
2023-11-15T06:07:45.693Z,3.10
2023-11-15T06:10:12.936Z,2.27
2023-11-15T06:12:42.618Z,2.47
2023-11-15T06:15:10.484Z,1.90
2023-11-15T06:17:38.214Z,1.80
2023-11-15T06:20:07.445Z,2.87
2023-11-15T06:22:34.923Z,1.77
2023-11-15T06:25:01.725Z,1.80
2023-11-15T06:27:28.967Z,1.83
2023-11-15T06:29:56.875Z,1.67
2023-11-15T06:32:25.119Z,2.00
2023-11-15T06:34:54.186Z,1.33
2023-11-15T06:37:21.115Z,1.50
2023-11-15T06:39:49.509Z,1.93
2023-11-15T06:42:17.163Z,1.70
2023-11-15T06:44:44.272Z,1.50
2023-11-15T06:47:11.185Z,1.60
2023-11-15T06:49:38.118Z,1.30
2023-11-15T06:52:07.228Z,1.50
2023-11-15T06:54:34.584Z,1.40
2023-11-15T06:57:01.399Z,1.40
2023-11-15T06:59:28.481Z,1.33
2023-11-15T07:01:55.369Z,1.60
2023-11-15T07:04:23.251Z,1.37
2023-11-15T07:06:50.299Z,1.30
2023-11-15T07:09:17.339Z,1.50
2023-11-15T07:11:48.274Z,1.50
2023-11-15T07:14:18.489Z,1.37
2023-11-15T07:16:53.628Z,1.50
2023-11-15T07:19:20.496Z,1.90
2023-11-15T07:21:47.289Z,1.70
2023-11-15T07:24:14.862Z,1.73
2023-11-15T07:26:41.720Z,2.10
2023-11-15T07:29:11.127Z,2.40
2023-11-15T07:31:38.012Z,1.73
2023-11-15T07:34:09.436Z,2.10
2023-11-15T07:36:36.263Z,2.37
2023-11-15T07:39:05.895Z,2.10
2023-11-15T07:41:36.110Z,2.37
2023-11-15T07:44:03.113Z,2.53
2023-11-15T07:46:30.725Z,1.90
2023-11-15T07:48:59.934Z,2.60
2023-11-15T07:51:26.934Z,2.00
2023-11-15T07:53:53.762Z,2.50
2023-11-15T07:56:20.888Z,1.90
2023-11-15T07:58:48.105Z,2.30
2023-11-15T08:01:15.048Z,3.07
2023-11-15T08:03:42.564Z,2.93
2023-11-15T08:06:10.040Z,2.67
2023-11-15T08:08:38.372Z,2.27
2023-11-15T08:11:05.967Z,2.00
2023-11-15T08:13:32.809Z,2.73
2023-11-15T08:15:59.616Z,2.93
2023-11-15T08:18:27.267Z,3.13
2023-11-15T08:20:54.890Z,3.03
2023-11-15T08:23:21.674Z,2.73
2023-11-15T08:25:51.459Z,2.83
2023-11-15T08:28:19.232Z,2.60
2023-11-15T08:30:46.847Z,2.30
2023-11-15T08:33:15.300Z,2.87
2023-11-15T08:35:42.405Z,3.50
2023-11-15T08:38:09.279Z,2.70
2023-11-15T08:40:36.979Z,2.07
2023-11-15T08:43:03.966Z,2.00
2023-11-15T08:45:30.943Z,2.07
2023-11-15T08:47:58.954Z,2.20
2023-11-15T08:50:26.426Z,1.93
2023-11-15T08:52:54.169Z,1.90
2023-11-15T08:55:21.059Z,2.27
2023-11-15T08:57:47.968Z,1.90
2023-11-15T09:00:17.256Z,1.50
2023-11-15T09:02:48.264Z,1.80
2023-11-15T09:05:16.140Z,2.27
2023-11-15T09:07:43.221Z,1.80
2023-11-15T09:10:10.394Z,2.03
2023-11-15T09:12:37.831Z,1.93
2023-11-15T09:15:13.284Z,2.10
2023-11-15T09:17:47.682Z,2.27
2023-11-15T09:20:20.815Z,2.20
2023-11-15T09:22:52.999Z,2.10
2023-11-15T09:25:23.489Z,1.80
2023-11-15T09:27:51.987Z,1.70
2023-11-15T09:30:22.575Z,1.43
2023-11-15T09:32:51.323Z,1.80
2023-11-15T09:35:24.440Z,1.43
2023-11-15T09:37:51.527Z,1.53
2023-11-15T09:40:20.052Z,1.53
2023-11-15T09:42:51.008Z,1.63
2023-11-15T09:45:20.098Z,1.93
2023-11-15T09:47:49.025Z,2.07
2023-11-15T09:50:25.239Z,1.63
2023-11-15T09:52:57.112Z,2.60
2023-11-15T09:55:25.234Z,2.40
2023-11-15T09:57:53.742Z,1.70
2023-11-15T10:00:22.951Z,2.00
2023-11-15T10:02:52.632Z,1.40
2023-11-15T10:05:25.428Z,1.87
2023-11-15T10:07:57.190Z,1.40
2023-11-15T10:10:25.725Z,1.27
2023-11-15T10:12:55.783Z,1.30
2023-11-15T10:15:28.491Z,1.40
2023-11-15T10:17:55.462Z,1.20
2023-11-15T10:20:26.785Z,1.20
2023-11-15T10:22:54.665Z,1.87
2023-11-15T10:25:22.174Z,1.67
2023-11-15T10:27:52.212Z,1.60
2023-11-15T10:30:21.679Z,1.53
2023-11-15T10:32:50.961Z,1.43
2023-11-15T10:35:28.682Z,1.30
2023-11-15T10:37:56.053Z,1.20
2023-11-15T10:40:27.000Z,1.13
2023-11-15T10:42:56.419Z,2.40
2023-11-15T10:45:28.901Z,1.30
2023-11-15T10:48:07.127Z,1.43
2023-11-15T10:50:38.594Z,1.60
2023-11-15T10:53:06.267Z,1.77
2023-11-15T10:55:34.040Z,1.87
2023-11-15T10:58:03.433Z,1.47
2023-11-15T11:00:36.057Z,1.50
2023-11-15T11:03:03.264Z,1.20
2023-11-15T11:05:47.487Z,1.43
2023-11-15T11:08:27.802Z,1.70
2023-11-15T11:11:10.011Z,1.90
2023-11-15T11:13:37.690Z,1.53
2023-11-15T11:16:34.521Z,1.60
2023-11-15T11:19:20.782Z,1.40
2023-11-15T11:22:09.526Z,1.30
2023-11-15T11:24:46.778Z,1.57
2023-11-15T11:27:13.682Z,1.77
2023-11-15T11:29:52.697Z,1.40
2023-11-15T11:32:32.648Z,1.07
2023-11-15T11:35:03.002Z,1.50
2023-11-15T11:37:48.069Z,1.40
2023-11-15T11:40:16.311Z,1.63
2023-11-15T11:42:45.430Z,1.27
2023-11-15T11:45:14.058Z,1.30
2023-11-15T11:47:47.516Z,2.00
2023-11-15T11:50:21.439Z,1.20
2023-11-15T11:52:56.428Z,1.50
2023-11-15T11:55:24.384Z,1.43
2023-11-15T11:57:51.480Z,1.87
2023-11-15T12:00:23.132Z,1.10
2023-11-15T12:03:00.810Z,1.63
2023-11-15T12:05:33.185Z,1.10
2023-11-15T12:08:01.583Z,1.30
2023-11-15T12:10:28.537Z,1.30
2023-11-15T12:12:57.603Z,1.30
2023-11-15T12:15:25.868Z,1.40
2023-11-15T12:17:58.238Z,1.30
2023-11-15T12:20:37.584Z,1.50
2023-11-15T12:23:11.931Z,1.60
2023-11-15T12:25:55.561Z,1.60
2023-11-15T12:28:32.631Z,1.20
2023-11-15T12:31:04.688Z,1.50
2023-11-15T12:33:35.232Z,1.30
2023-11-15T12:36:02.599Z,1.40
2023-11-15T12:38:30.036Z,1.50
2023-11-15T12:41:07.028Z,1.40
2023-11-15T12:43:34.738Z,1.40
2023-11-15T12:46:15.935Z,1.50
2023-11-15T12:48:43.188Z,1.30
2023-11-15T12:51:10.202Z,1.30
2023-11-15T12:53:37.287Z,1.00
2023-11-15T12:56:05.175Z,1.20
2023-11-15T12:58:31.878Z,1.20
2023-11-15T13:01:08.578Z,1.30
2023-11-15T13:03:37.881Z,1.60
2023-11-15T13:06:16.997Z,1.37
2023-11-15T13:08:51.774Z,1.17
2023-11-15T13:11:27.373Z,1.40
2023-11-15T13:13:54.661Z,1.20
2023-11-15T13:16:22.765Z,1.30
2023-11-15T13:18:50.590Z,1.53
2023-11-15T13:21:23.170Z,1.30
2023-11-15T13:23:52.765Z,1.50
2023-11-15T13:26:21.012Z,1.30
2023-11-15T13:28:49.819Z,2.23
2023-11-15T13:31:21.035Z,1.50
2023-11-15T13:33:48.926Z,2.00
2023-11-15T13:36:19.524Z,1.50
2023-11-15T13:38:47.135Z,1.40
2023-11-15T13:41:16.894Z,1.67
2023-11-15T13:43:48.495Z,1.70
2023-11-15T13:46:15.903Z,1.30
2023-11-15T13:48:43.423Z,1.60
2023-11-15T13:51:12.828Z,1.77
2023-11-15T13:53:40.605Z,1.50
2023-11-15T13:56:08.890Z,1.97
2023-11-15T13:58:37.429Z,1.77
2023-11-15T14:01:05.943Z,1.80
2023-11-15T14:03:33.944Z,1.47
2023-11-15T14:06:04.408Z,1.87
2023-11-15T14:11:13.810Z,1.37
2023-11-15T14:13:43.119Z,1.70
2023-11-15T14:16:10.241Z,1.40
2023-11-15T14:18:37.324Z,1.50
2023-11-15T14:21:05.865Z,1.57
2023-11-15T14:23:34.577Z,1.40
2023-11-15T14:26:01.803Z,1.40
2023-11-15T14:28:28.659Z,1.43
2023-11-15T14:30:56.173Z,1.70
2023-11-15T14:33:23.089Z,1.30
2023-11-15T14:35:50.225Z,1.80
2023-11-15T14:38:17.473Z,1.63
2023-11-15T14:40:45.420Z,1.90
2023-11-15T14:43:15.679Z,1.40
2023-11-15T14:45:44.271Z,1.63
2023-11-15T14:48:11.940Z,1.20
2023-11-15T14:50:41.018Z,1.70
2023-11-15T14:53:31.478Z,1.50
2023-11-15T14:55:59.377Z,1.60
2023-11-15T14:58:27.078Z,1.57
2023-11-15T15:00:54.278Z,1.20
2023-11-15T15:03:23.616Z,1.50
2023-11-15T15:05:51.962Z,1.87
2023-11-15T15:08:19.528Z,1.53
2023-11-15T15:10:46.383Z,1.50
2023-11-15T15:13:14.121Z,1.80
2023-11-15T15:15:41.019Z,1.67
2023-11-15T15:18:13.833Z,1.90
2023-11-15T15:20:45.905Z,1.20
2023-11-15T15:23:13.924Z,1.60
2023-11-15T15:25:42.200Z,1.60
2023-11-15T15:28:10.186Z,2.37
2023-11-15T15:30:37.980Z,1.60
2023-11-15T15:33:08.133Z,2.07
2023-11-15T15:35:35.702Z,1.47
2023-11-15T15:38:03.923Z,1.70
2023-11-15T15:40:38.083Z,1.33
2023-11-15T15:43:05.134Z,2.00
2023-11-15T15:45:32.330Z,1.60
2023-11-15T15:48:00.530Z,1.73
2023-11-15T15:50:27.752Z,1.93
2023-11-15T15:52:54.556Z,1.50
2023-11-15T15:55:21.782Z,1.90
2023-11-15T15:57:48.577Z,1.70
2023-11-15T16:00:17.741Z,2.30
2023-11-15T16:02:47.236Z,1.70
2023-11-15T16:05:14.639Z,1.50
2023-11-15T16:07:41.568Z,1.70
2023-11-15T16:10:09.152Z,1.83
2023-11-15T16:12:37.576Z,1.60
2023-11-15T16:15:17.240Z,1.60
2023-11-15T16:17:44.567Z,1.83
2023-11-15T16:20:13.169Z,2.47
2023-11-15T16:22:39.987Z,1.60
2023-11-15T16:25:07.598Z,2.07
2023-11-15T16:27:37.487Z,1.30
2023-11-15T16:30:10.683Z,2.20
2023-11-15T16:32:37.644Z,1.57
2023-11-15T16:35:06.464Z,1.67
2023-11-15T16:37:36.844Z,1.80
2023-11-15T16:40:09.461Z,2.03
2023-11-15T16:42:36.750Z,1.90
2023-11-15T16:45:07.777Z,2.30
2023-11-15T16:47:36.324Z,2.40
2023-11-15T16:50:04.932Z,1.83
2023-11-15T16:52:34.037Z,2.00
2023-11-15T16:55:01.969Z,1.70
2023-11-15T16:57:28.862Z,2.17
2023-11-15T16:59:58.277Z,2.17
2023-11-15T17:02:25.168Z,2.57
2023-11-15T17:04:51.985Z,1.90
2023-11-15T17:07:19.633Z,1.87
2023-11-15T17:09:47.000Z,1.87
2023-11-15T17:12:14.788Z,1.90
2023-11-15T17:14:41.558Z,2.23
2023-11-15T17:17:08.456Z,1.83
2023-11-15T17:19:35.298Z,2.20
2023-11-15T17:22:02.051Z,2.30
2023-11-15T17:24:28.914Z,2.60
2023-11-15T17:26:57.030Z,1.83
2023-11-15T17:29:23.818Z,2.27
2023-11-15T17:31:50.702Z,1.73
2023-11-15T17:34:17.554Z,2.20
2023-11-15T17:36:44.936Z,2.67
2023-11-15T17:39:16.568Z,2.10
2023-11-15T17:41:43.454Z,2.20
2023-11-15T17:44:15.696Z,2.23
2023-11-15T17:46:43.541Z,2.90
2023-11-15T17:49:11.934Z,2.50
2023-11-15T17:51:39.068Z,2.40
2023-11-15T17:54:08.005Z,2.87
2023-11-15T17:56:35.249Z,2.33
2023-11-15T17:59:03.588Z,3.07
2023-11-15T18:01:39.697Z,3.13
2023-11-15T18:04:09.663Z,3.47
2023-11-15T18:06:37.002Z,3.53
2023-11-15T18:09:04.856Z,3.30
2023-11-15T18:11:31.714Z,3.40
2023-11-15T18:13:58.546Z,4.43
2023-11-15T18:16:27.069Z,3.77
2023-11-15T18:18:56.275Z,3.33
2023-11-15T18:21:23.402Z,3.70
2023-11-15T18:23:50.518Z,4.47
2023-11-15T18:26:24.047Z,3.00
2023-11-15T18:28:50.824Z,2.50
2023-11-15T18:31:17.650Z,2.03
2023-11-15T18:33:44.652Z,2.27
2023-11-15T18:36:12.045Z,2.60
2023-11-15T18:38:38.957Z,2.20
2023-11-15T18:41:06.398Z,2.17
2023-11-15T18:43:33.244Z,2.67
2023-11-15T18:46:00.101Z,5.67
2023-11-15T18:48:27.529Z,3.60
2023-11-15T18:50:54.458Z,3.70
2023-11-15T18:53:21.276Z,3.13
2023-11-15T18:55:48.090Z,2.90
2023-11-15T18:58:14.960Z,2.40
2023-11-15T19:00:42.163Z,3.00
2023-11-15T19:03:09.174Z,3.40
2023-11-15T19:05:36.357Z,3.07
2023-11-15T19:08:03.771Z,1.93
2023-11-15T19:10:33.541Z,2.73
2023-11-15T19:13:00.514Z,2.67
2023-11-15T19:15:27.406Z,2.77
2023-11-15T19:17:55.007Z,3.43
2023-11-15T19:20:24.099Z,4.20
2023-11-15T19:22:51.720Z,3.83
2023-11-15T19:25:18.587Z,3.93
2023-11-15T19:27:46.542Z,3.53
2023-11-15T19:30:14.103Z,3.97
2023-11-15T19:32:41.555Z,2.60
2023-11-15T19:35:09.727Z,2.47
2023-11-15T19:37:37.347Z,2.67
2023-11-15T19:40:10.064Z,2.63
2023-11-15T19:42:39.355Z,2.50
2023-11-15T19:45:08.753Z,2.80
2023-11-15T19:47:36.104Z,2.97
2023-11-15T19:50:03.159Z,2.40
2023-11-15T19:52:30.643Z,3.00
2023-11-15T19:54:58.435Z,3.00
2023-11-15T19:57:26.501Z,3.00
2023-11-15T19:59:53.785Z,2.40
2023-11-15T20:02:21.214Z,2.53
2023-11-15T20:04:50.069Z,2.80
2023-11-15T20:07:17.035Z,2.43
2023-11-15T20:09:44.192Z,3.20
2023-11-15T20:12:11.516Z,2.70
2023-11-15T20:14:38.394Z,2.60
2023-11-15T20:17:05.346Z,3.13
2023-11-15T20:19:33.282Z,3.67
2023-11-15T20:22:00.070Z,2.70
2023-11-15T20:24:27.388Z,2.93
2023-11-15T20:26:55.049Z,2.43
2023-11-15T20:29:22.196Z,3.00
2023-11-15T20:31:49.817Z,4.27
2023-11-15T20:34:19.756Z,2.63
2023-11-15T20:36:46.832Z,2.80
2023-11-15T20:39:22.120Z,2.80
2023-11-15T20:41:53.300Z,3.20
2023-11-15T20:44:20.717Z,2.57
2023-11-15T20:46:47.775Z,2.60
2023-11-15T20:49:14.920Z,2.70
2023-11-15T20:51:48.420Z,2.93
2023-11-15T20:54:22.114Z,2.70
2023-11-15T20:56:49.424Z,2.60
2023-11-15T20:59:16.846Z,2.60
2023-11-15T21:01:44.162Z,2.10
2023-11-15T21:04:12.182Z,2.60
2023-11-15T21:06:39.196Z,2.47
2023-11-15T21:09:10.191Z,2.73
2023-11-15T21:11:40.493Z,2.80
2023-11-15T21:14:08.810Z,2.87
2023-11-15T21:16:37.149Z,3.00
2023-11-15T21:19:04.975Z,2.80
2023-11-15T21:21:32.131Z,3.80
2023-11-15T21:23:59.163Z,3.00
2023-11-15T21:26:26.056Z,2.63
2023-11-15T21:28:54.903Z,2.40
2023-11-15T21:31:22.611Z,3.17
2023-11-15T21:33:49.778Z,2.67
2023-11-15T21:36:18.160Z,2.37
2023-11-15T21:38:45.615Z,3.00
2023-11-15T21:41:13.313Z,2.97
2023-11-15T21:43:40.395Z,2.97
2023-11-15T21:46:07.345Z,2.70
2023-11-15T21:48:35.810Z,2.53
2023-11-15T21:51:02.838Z,3.07
2023-11-15T21:53:32.614Z,2.30
2023-11-15T21:55:59.719Z,3.73
2023-11-15T21:58:26.548Z,2.30
2023-11-15T22:00:54.377Z,3.37
2023-11-15T22:03:21.246Z,3.10
2023-11-15T22:05:48.355Z,3.00
2023-11-15T22:08:15.195Z,2.57
2023-11-15T22:10:44.197Z,3.10
2023-11-15T22:13:14.212Z,2.80
2023-11-15T22:15:41.203Z,2.70
2023-11-15T22:18:08.471Z,2.50
2023-11-15T22:20:36.458Z,2.90
2023-11-15T22:23:04.904Z,2.90
2023-11-15T22:25:31.746Z,3.17
2023-11-15T22:27:58.653Z,2.93
2023-11-15T22:30:25.478Z,3.33
2023-11-15T22:32:52.400Z,3.40
2023-11-15T22:35:19.396Z,2.83
2023-11-15T22:37:46.205Z,3.00
2023-11-15T22:40:13.283Z,3.20
2023-11-15T22:42:40.270Z,2.67
2023-11-15T22:45:08.222Z,3.00
2023-11-15T22:47:35.125Z,2.60
2023-11-15T22:50:02.600Z,2.63
2023-11-15T22:52:29.552Z,2.57
2023-11-15T22:54:56.393Z,2.80
2023-11-15T22:57:23.487Z,2.77
2023-11-15T22:59:52.560Z,2.50
2023-11-15T23:02:20.230Z,2.87
2023-11-15T23:04:47.538Z,2.90
2023-11-15T23:07:14.605Z,2.00
2023-11-15T23:09:41.417Z,2.47
2023-11-15T23:12:08.426Z,2.60
2023-11-15T23:14:35.225Z,2.57
2023-11-15T23:17:03.839Z,2.80
2023-11-15T23:19:30.614Z,2.63
2023-11-15T23:22:03.453Z,3.03
2023-11-15T23:24:31.361Z,2.83
2023-11-15T23:27:01.418Z,2.80
2023-11-15T23:29:29.455Z,2.50
2023-11-15T23:31:57.339Z,1.70
2023-11-15T23:34:24.721Z,2.47
2023-11-15T23:36:53.071Z,2.73
2023-11-15T23:39:21.008Z,2.70
2023-11-15T23:41:48.107Z,2.83
2023-11-15T23:44:14.971Z,2.63
2023-11-15T23:46:41.797Z,2.70
2023-11-15T23:49:09.052Z,2.17
2023-11-15T23:51:37.014Z,3.10
2023-11-15T23:54:04.273Z,2.60
2023-11-15T23:56:31.296Z,2.80
2023-11-15T23:58:58.507Z,2.70
